sensor_id;sensor_type;location;lat;lon;timestamp;noise_LAeq;noise_LA_min;noise_LA_max;noise_LA01;noise_LA95
71628;Laerm;59477;52.374;9.916;2023-12-04T00:00:19;43.44;34.01;68.73;;
71628;Laerm;59477;52.374;9.916;2023-12-04T00:02:20;39.25;34.00;58.72;;
71628;Laerm;59477;52.374;9.916;2023-12-04T00:04:20;44.78;34.83;65.31;;
71628;Laerm;59477;52.374;9.916;2023-12-04T00:06:20;40.21;33.54;52.24;;
71628;Laerm;59477;52.374;9.916;2023-12-04T00:08:21;45.40;34.08;67.95;;
71628;Laerm;59477;52.374;9.916;2023-12-04T00:10:21;40.91;34.69;57.02;;
71628;Laerm;59477;52.374;9.916;2023-12-04T00:12:21;41.48;35.08;59.12;;
71628;Laerm;59477;52.374;9.916;2023-12-04T00:14:21;38.20;33.39;52.92;;
71628;Laerm;59477;52.374;9.916;2023-12-04T00:16:22;39.66;33.51;57.56;;
71628;Laerm;59477;52.374;9.916;2023-12-04T00:18:22;40.17;34.02;57.69;;
71628;Laerm;59477;52.374;9.916;2023-12-04T00:20:22;39.70;33.76;56.71;;
71628;Laerm;59477;52.374;9.916;2023-12-04T00:22:23;44.66;34.03;64.17;;
71628;Laerm;59477;52.374;9.916;2023-12-04T00:24:23;48.99;34.36;69.09;;
71628;Laerm;59477;52.374;9.916;2023-12-04T00:26:24;38.31;33.84;56.54;;
71628;Laerm;59477;52.374;9.916;2023-12-04T00:28:24;40.42;34.29;59.71;;
71628;Laerm;59477;52.374;9.916;2023-12-04T00:30:24;51.56;34.91;77.81;;
71628;Laerm;59477;52.374;9.916;2023-12-04T00:32:25;38.01;34.16;50.38;;
71628;Laerm;59477;52.374;9.916;2023-12-04T00:34:25;42.20;34.48;63.49;;
71628;Laerm;59477;52.374;9.916;2023-12-04T00:36:25;41.40;34.87;57.48;;
71628;Laerm;59477;52.374;9.916;2023-12-04T00:38:25;46.34;35.00;66.73;;
71628;Laerm;59477;52.374;9.916;2023-12-04T00:40:26;39.47;35.13;54.52;;
71628;Laerm;59477;52.374;9.916;2023-12-04T00:42:26;45.89;35.96;68.07;;
71628;Laerm;59477;52.374;9.916;2023-12-04T00:44:26;44.55;33.30;65.06;;
71628;Laerm;59477;52.374;9.916;2023-12-04T00:46:26;40.95;34.51;67.12;;
71628;Laerm;59477;52.374;9.916;2023-12-04T00:48:27;38.57;34.33;53.80;;
71628;Laerm;59477;52.374;9.916;2023-12-04T00:50:27;40.89;33.86;59.62;;
71628;Laerm;59477;52.374;9.916;2023-12-04T00:52:27;44.73;33.50;63.84;;
71628;Laerm;59477;52.374;9.916;2023-12-04T00:54:28;44.94;36.10;63.13;;
71628;Laerm;59477;52.374;9.916;2023-12-04T00:56:28;42.75;34.52;64.24;;
71628;Laerm;59477;52.374;9.916;2023-12-04T00:58:28;39.98;33.59;50.86;;
71628;Laerm;59477;52.374;9.916;2023-12-04T01:00:28;41.38;33.77;58.85;;
71628;Laerm;59477;52.374;9.916;2023-12-04T01:02:29;42.45;33.60;55.52;;
71628;Laerm;59477;52.374;9.916;2023-12-04T01:04:30;36.03;33.07;52.90;;
71628;Laerm;59477;52.374;9.916;2023-12-04T01:06:31;46.16;33.08;70.73;;
71628;Laerm;59477;52.374;9.916;2023-12-04T01:08:31;40.18;33.42;61.68;;
71628;Laerm;59477;52.374;9.916;2023-12-04T01:10:31;41.91;34.32;59.47;;
71628;Laerm;59477;52.374;9.916;2023-12-04T01:12:32;39.98;32.95;59.40;;
71628;Laerm;59477;52.374;9.916;2023-12-04T01:14:32;40.14;33.01;59.62;;
71628;Laerm;59477;52.374;9.916;2023-12-04T01:16:33;41.90;33.32;62.46;;
71628;Laerm;59477;52.374;9.916;2023-12-04T01:18:33;53.86;34.54;78.86;;
71628;Laerm;59477;52.374;9.916;2023-12-04T01:20:33;49.43;34.71;68.53;;
71628;Laerm;59477;52.374;9.916;2023-12-04T01:22:33;49.77;34.65;69.48;;
71628;Laerm;59477;52.374;9.916;2023-12-04T01:24:34;52.45;34.60;74.21;;
71628;Laerm;59477;52.374;9.916;2023-12-04T01:26:34;51.90;34.38;73.95;;
71628;Laerm;59477;52.374;9.916;2023-12-04T01:28:34;49.19;34.60;69.08;;
71628;Laerm;59477;52.374;9.916;2023-12-04T01:30:34;47.25;35.63;70.86;;
71628;Laerm;59477;52.374;9.916;2023-12-04T01:32:35;54.68;34.12;74.62;;
71628;Laerm;59477;52.374;9.916;2023-12-04T01:34:35;59.34;34.87;81.70;;
71628;Laerm;59477;52.374;9.916;2023-12-04T01:36:35;53.48;34.75;74.08;;
71628;Laerm;59477;52.374;9.916;2023-12-04T01:38:36;52.65;36.37;71.88;;
71628;Laerm;59477;52.374;9.916;2023-12-04T01:40:37;54.26;35.37;76.10;;
71628;Laerm;59477;52.374;9.916;2023-12-04T01:42:37;51.61;34.56;74.06;;
71628;Laerm;59477;52.374;9.916;2023-12-04T01:44:38;44.43;34.38;62.56;;
71628;Laerm;59477;52.374;9.916;2023-12-04T01:46:38;42.42;34.21;61.16;;
71628;Laerm;59477;52.374;9.916;2023-12-04T01:48:38;40.15;33.14;58.43;;
71628;Laerm;59477;52.374;9.916;2023-12-04T01:50:39;38.11;33.46;50.57;;
71628;Laerm;59477;52.374;9.916;2023-12-04T01:52:39;48.96;34.55;69.03;;
71628;Laerm;59477;52.374;9.916;2023-12-04T01:54:40;47.46;34.75;69.00;;
71628;Laerm;59477;52.374;9.916;2023-12-04T01:56:40;42.95;35.32;63.90;;
71628;Laerm;59477;52.374;9.916;2023-12-04T01:58:41;56.17;35.25;78.78;;
71628;Laerm;59477;52.374;9.916;2023-12-04T02:00:41;54.97;37.38;77.82;;
71628;Laerm;59477;52.374;9.916;2023-12-04T02:02:42;52.22;36.49;74.98;;
71628;Laerm;59477;52.374;9.916;2023-12-04T02:04:42;48.64;36.82;70.81;;
71628;Laerm;59477;52.374;9.916;2023-12-04T02:06:42;47.89;36.45;67.94;;
71628;Laerm;59477;52.374;9.916;2023-12-04T02:08:43;47.08;37.17;66.76;;
71628;Laerm;59477;52.374;9.916;2023-12-04T02:10:44;54.12;37.34;76.94;;
71628;Laerm;59477;52.374;9.916;2023-12-04T02:12:44;51.32;36.86;73.61;;
71628;Laerm;59477;52.374;9.916;2023-12-04T02:14:44;49.52;38.57;66.81;;
71628;Laerm;59477;52.374;9.916;2023-12-04T02:16:45;43.76;38.50;57.01;;
71628;Laerm;59477;52.374;9.916;2023-12-04T02:18:45;44.18;38.08;61.32;;
71628;Laerm;59477;52.374;9.916;2023-12-04T02:20:46;45.19;39.43;56.44;;
71628;Laerm;59477;52.374;9.916;2023-12-04T02:22:46;45.48;37.37;63.34;;
71628;Laerm;59477;52.374;9.916;2023-12-04T02:24:46;44.42;37.64;62.36;;
71628;Laerm;59477;52.374;9.916;2023-12-04T02:26:47;45.93;38.38;62.37;;
71628;Laerm;59477;52.374;9.916;2023-12-04T02:28:54;41.01;36.76;55.55;;
71628;Laerm;59477;52.374;9.916;2023-12-04T02:30:55;40.45;36.84;53.00;;
71628;Laerm;59477;52.374;9.916;2023-12-04T02:32:57;40.00;36.34;51.04;;
71628;Laerm;59477;52.374;9.916;2023-12-04T02:34:58;38.58;35.36;50.92;;
71628;Laerm;59477;52.374;9.916;2023-12-04T02:36:59;40.09;36.22;57.70;;
71628;Laerm;59477;52.374;9.916;2023-12-04T02:39:01;40.27;36.83;51.95;;
71628;Laerm;59477;52.374;9.916;2023-12-04T02:41:01;45.47;38.46;61.82;;
71628;Laerm;59477;52.374;9.916;2023-12-04T02:43:02;41.90;37.83;54.73;;
71628;Laerm;59477;52.374;9.916;2023-12-04T02:45:02;46.37;37.17;70.45;;
71628;Laerm;59477;52.374;9.916;2023-12-04T02:47:02;40.47;36.99;48.28;;
71628;Laerm;59477;52.374;9.916;2023-12-04T02:49:03;40.82;37.63;57.10;;
71628;Laerm;59477;52.374;9.916;2023-12-04T02:51:03;41.22;37.54;52.01;;
71628;Laerm;59477;52.374;9.916;2023-12-04T02:53:04;40.17;37.21;47.49;;
71628;Laerm;59477;52.374;9.916;2023-12-04T02:55:04;41.94;36.39;59.84;;
71628;Laerm;59477;52.374;9.916;2023-12-04T02:57:04;42.60;36.60;62.51;;
71628;Laerm;59477;52.374;9.916;2023-12-04T02:59:05;41.74;35.52;63.00;;
71628;Laerm;59477;52.374;9.916;2023-12-04T03:01:05;43.22;36.71;57.13;;
71628;Laerm;59477;52.374;9.916;2023-12-04T03:03:05;41.83;36.57;61.10;;
71628;Laerm;59477;52.374;9.916;2023-12-04T03:05:05;40.68;36.02;63.26;;
71628;Laerm;59477;52.374;9.916;2023-12-04T03:07:06;39.17;35.97;51.10;;
71628;Laerm;59477;52.374;9.916;2023-12-04T03:09:06;39.83;35.97;56.81;;
71628;Laerm;59477;52.374;9.916;2023-12-04T03:11:06;38.37;35.41;57.09;;
71628;Laerm;59477;52.374;9.916;2023-12-04T03:13:07;42.72;36.76;60.28;;
71628;Laerm;59477;52.374;9.916;2023-12-04T03:15:07;42.80;36.04;55.94;;
71628;Laerm;59477;52.374;9.916;2023-12-04T03:17:07;40.45;35.07;48.93;;
71628;Laerm;59477;52.374;9.916;2023-12-04T03:19:08;40.65;35.58;47.94;;
71628;Laerm;59477;52.374;9.916;2023-12-04T03:21:08;44.48;36.41;66.49;;
71628;Laerm;59477;52.374;9.916;2023-12-04T03:23:08;38.48;34.75;55.00;;
71628;Laerm;59477;52.374;9.916;2023-12-04T03:25:11;37.85;34.90;44.49;;
71628;Laerm;59477;52.374;9.916;2023-12-04T03:27:12;39.40;35.67;55.35;;
71628;Laerm;59477;52.374;9.916;2023-12-04T03:29:12;41.43;36.85;48.01;;
71628;Laerm;59477;52.374;9.916;2023-12-04T03:31:12;40.66;35.72;46.01;;
71628;Laerm;59477;52.374;9.916;2023-12-04T03:33:12;39.50;34.96;48.13;;
71628;Laerm;59477;52.374;9.916;2023-12-04T03:35:15;37.33;34.22;50.84;;
71628;Laerm;59477;52.374;9.916;2023-12-04T03:37:16;39.63;35.69;53.94;;
71628;Laerm;59477;52.374;9.916;2023-12-04T03:39:16;42.12;34.71;66.96;;
71628;Laerm;59477;52.374;9.916;2023-12-04T03:41:16;38.80;35.40;53.15;;
71628;Laerm;59477;52.374;9.916;2023-12-04T03:43:17;41.64;37.34;54.43;;
71628;Laerm;59477;52.374;9.916;2023-12-04T03:45:17;41.39;35.58;53.39;;
71628;Laerm;59477;52.374;9.916;2023-12-04T03:47:17;38.78;34.83;50.68;;
71628;Laerm;59477;52.374;9.916;2023-12-04T03:49:17;42.09;37.13;51.80;;
71628;Laerm;59477;52.374;9.916;2023-12-04T03:51:18;42.18;37.62;49.92;;
71628;Laerm;59477;52.374;9.916;2023-12-04T03:53:18;42.64;37.42;55.39;;
71628;Laerm;59477;52.374;9.916;2023-12-04T03:55:18;43.27;39.18;50.00;;
71628;Laerm;59477;52.374;9.916;2023-12-04T03:57:19;41.18;36.23;51.50;;
71628;Laerm;59477;52.374;9.916;2023-12-04T03:59:20;41.80;36.48;60.62;;
71628;Laerm;59477;52.374;9.916;2023-12-04T04:01:20;42.41;37.08;58.29;;
71628;Laerm;59477;52.374;9.916;2023-12-04T04:03:20;41.71;36.37;61.97;;
71628;Laerm;59477;52.374;9.916;2023-12-04T04:05:20;43.73;37.45;60.06;;
71628;Laerm;59477;52.374;9.916;2023-12-04T04:07:21;44.60;37.74;57.69;;
71628;Laerm;59477;52.374;9.916;2023-12-04T04:09:21;44.71;36.98;73.64;;
71628;Laerm;59477;52.374;9.916;2023-12-04T04:11:22;43.24;38.82;56.49;;
71628;Laerm;59477;52.374;9.916;2023-12-04T04:13:22;44.03;37.44;54.42;;
71628;Laerm;59477;52.374;9.916;2023-12-04T04:15:22;42.79;36.73;54.74;;
71628;Laerm;59477;52.374;9.916;2023-12-04T04:17:23;43.42;38.36;52.76;;
71628;Laerm;59477;52.374;9.916;2023-12-04T04:19:26;43.48;38.36;58.82;;
71628;Laerm;59477;52.374;9.916;2023-12-04T04:21:26;44.15;39.29;57.12;;
71628;Laerm;59477;52.374;9.916;2023-12-04T04:23:26;44.28;37.86;57.27;;
71628;Laerm;59477;52.374;9.916;2023-12-04T04:25:26;42.77;38.43;52.64;;
71628;Laerm;59477;52.374;9.916;2023-12-04T04:27:27;44.09;36.75;54.68;;
71628;Laerm;59477;52.374;9.916;2023-12-04T04:29:27;44.26;39.06;59.48;;
71628;Laerm;59477;52.374;9.916;2023-12-04T04:31:27;43.23;39.06;55.77;;
71628;Laerm;59477;52.374;9.916;2023-12-04T04:33:28;43.16;38.26;62.49;;
71628;Laerm;59477;52.374;9.916;2023-12-04T04:35:28;44.78;40.27;51.29;;
71628;Laerm;59477;52.374;9.916;2023-12-04T04:37:28;45.44;39.93;55.57;;
71628;Laerm;59477;52.374;9.916;2023-12-04T04:39:28;45.29;40.75;58.87;;
71628;Laerm;59477;52.374;9.916;2023-12-04T04:41:28;46.27;39.73;61.35;;
71628;Laerm;59477;52.374;9.916;2023-12-04T04:43:29;46.26;40.28;55.82;;
71628;Laerm;59477;52.374;9.916;2023-12-04T04:45:29;46.82;41.42;65.11;;
71628;Laerm;59477;52.374;9.916;2023-12-04T04:47:29;46.04;40.35;59.44;;
71628;Laerm;59477;52.374;9.916;2023-12-04T04:49:30;45.17;38.81;55.00;;
71628;Laerm;59477;52.374;9.916;2023-12-04T04:51:30;46.66;39.91;62.11;;
71628;Laerm;59477;52.374;9.916;2023-12-04T04:53:30;47.38;40.68;56.02;;
71628;Laerm;59477;52.374;9.916;2023-12-04T04:55:30;45.45;39.48;58.56;;
71628;Laerm;59477;52.374;9.916;2023-12-04T04:57:31;46.93;41.11;61.28;;
71628;Laerm;59477;52.374;9.916;2023-12-04T04:59:32;45.78;39.00;60.09;;
71628;Laerm;59477;52.374;9.916;2023-12-04T05:01:32;43.18;38.54;53.88;;
71628;Laerm;59477;52.374;9.916;2023-12-04T05:03:32;44.91;38.50;52.82;;
71628;Laerm;59477;52.374;9.916;2023-12-04T05:05:32;44.93;39.28;51.60;;
71628;Laerm;59477;52.374;9.916;2023-12-04T05:07:33;46.07;41.07;57.22;;
71628;Laerm;59477;52.374;9.916;2023-12-04T05:09:33;46.31;40.64;53.78;;
71628;Laerm;59477;52.374;9.916;2023-12-04T05:11:33;46.74;41.23;58.63;;
71628;Laerm;59477;52.374;9.916;2023-12-04T05:13:34;46.63;41.28;62.27;;
71628;Laerm;59477;52.374;9.916;2023-12-04T05:15:34;45.63;40.46;57.64;;
71628;Laerm;59477;52.374;9.916;2023-12-04T05:17:34;46.28;41.37;58.81;;
71628;Laerm;59477;52.374;9.916;2023-12-04T05:19:34;45.02;41.03;52.20;;
71628;Laerm;59477;52.374;9.916;2023-12-04T05:21:35;45.97;39.18;60.21;;
71628;Laerm;59477;52.374;9.916;2023-12-04T05:23:35;46.99;39.46;64.82;;
71628;Laerm;59477;52.374;9.916;2023-12-04T05:25:36;44.77;39.89;51.51;;
71628;Laerm;59477;52.374;9.916;2023-12-04T05:27:36;46.75;41.02;58.98;;
71628;Laerm;59477;52.374;9.916;2023-12-04T05:29:36;45.91;40.11;61.43;;
71628;Laerm;59477;52.374;9.916;2023-12-04T05:31:36;45.53;40.65;57.12;;
71628;Laerm;59477;52.374;9.916;2023-12-04T05:33:36;47.15;41.32;63.62;;
71628;Laerm;59477;52.374;9.916;2023-12-04T05:35:37;46.29;41.13;55.68;;
71628;Laerm;59477;52.374;9.916;2023-12-04T05:37:37;46.32;41.38;53.24;;
71628;Laerm;59477;52.374;9.916;2023-12-04T05:39:38;45.90;41.15;58.63;;
71628;Laerm;59477;52.374;9.916;2023-12-04T05:41:38;46.23;41.27;56.16;;
71628;Laerm;59477;52.374;9.916;2023-12-04T05:43:38;47.15;42.25;54.21;;
71628;Laerm;59477;52.374;9.916;2023-12-04T05:45:39;46.34;40.73;55.03;;
71628;Laerm;59477;52.374;9.916;2023-12-04T05:47:39;45.80;41.39;50.14;;
71628;Laerm;59477;52.374;9.916;2023-12-04T05:49:40;48.06;40.81;65.21;;
71628;Laerm;59477;52.374;9.916;2023-12-04T05:51:40;46.13;39.78;54.50;;
71628;Laerm;59477;52.374;9.916;2023-12-04T05:53:41;47.30;42.55;59.74;;
71628;Laerm;59477;52.374;9.916;2023-12-04T05:55:41;47.65;42.35;59.31;;
71628;Laerm;59477;52.374;9.916;2023-12-04T05:57:41;48.17;42.55;62.51;;
71628;Laerm;59477;52.374;9.916;2023-12-04T05:59:41;47.55;42.82;55.26;;
71628;Laerm;59477;52.374;9.916;2023-12-04T06:01:41;47.22;41.94;55.75;;
71628;Laerm;59477;52.374;9.916;2023-12-04T06:03:42;48.03;41.96;55.58;;
71628;Laerm;59477;52.374;9.916;2023-12-04T06:05:42;46.24;40.16;55.72;;
71628;Laerm;59477;52.374;9.916;2023-12-04T06:07:42;48.98;43.92;53.95;;
71628;Laerm;59477;52.374;9.916;2023-12-04T06:09:43;47.17;41.90;56.36;;
71628;Laerm;59477;52.374;9.916;2023-12-04T06:11:43;48.14;42.01;54.55;;
71628;Laerm;59477;52.374;9.916;2023-12-04T06:13:43;51.26;42.83;61.38;;
71628;Laerm;59477;52.374;9.916;2023-12-04T06:15:43;46.49;42.33;53.50;;
71628;Laerm;59477;52.374;9.916;2023-12-04T06:17:44;45.98;41.62;56.86;;
71628;Laerm;59477;52.374;9.916;2023-12-04T06:19:46;46.87;41.53;54.72;;
71628;Laerm;59477;52.374;9.916;2023-12-04T06:21:46;48.07;42.46;55.01;;
71628;Laerm;59477;52.374;9.916;2023-12-04T06:23:46;47.57;42.47;62.23;;
71628;Laerm;59477;52.374;9.916;2023-12-04T06:25:47;52.46;41.41;76.56;;
71628;Laerm;59477;52.374;9.916;2023-12-04T06:27:47;47.45;42.63;53.88;;
71628;Laerm;59477;52.374;9.916;2023-12-04T06:29:48;48.47;42.94;62.05;;
71628;Laerm;59477;52.374;9.916;2023-12-04T06:31:48;46.14;40.57;56.75;;
71628;Laerm;59477;52.374;9.916;2023-12-04T06:33:49;46.94;40.82;54.51;;
71628;Laerm;59477;52.374;9.916;2023-12-04T06:35:49;47.47;41.30;55.39;;
71628;Laerm;59477;52.374;9.916;2023-12-04T06:37:50;47.52;41.69;57.08;;
71628;Laerm;59477;52.374;9.916;2023-12-04T06:39:53;47.81;41.84;64.25;;
71628;Laerm;59477;52.374;9.916;2023-12-04T06:41:54;48.15;42.22;54.75;;
71628;Laerm;59477;52.374;9.916;2023-12-04T06:43:54;47.10;42.36;61.29;;
71628;Laerm;59477;52.374;9.916;2023-12-04T06:45:55;47.71;41.52;59.86;;
71628;Laerm;59477;52.374;9.916;2023-12-04T06:47:57;48.01;43.43;55.27;;
71628;Laerm;59477;52.374;9.916;2023-12-04T06:49:57;49.09;42.77;68.36;;
71628;Laerm;59477;52.374;9.916;2023-12-04T06:51:58;46.41;41.58;57.47;;
71628;Laerm;59477;52.374;9.916;2023-12-04T06:53:59;47.92;41.16;57.40;;
71628;Laerm;59477;52.374;9.916;2023-12-04T06:55:59;48.36;42.50;56.22;;
71628;Laerm;59477;52.374;9.916;2023-12-04T06:57:59;48.99;42.42;67.68;;
71628;Laerm;59477;52.374;9.916;2023-12-04T06:59:59;49.86;43.20;63.86;;
71628;Laerm;59477;52.374;9.916;2023-12-04T07:02:00;50.06;41.55;63.48;;
71628;Laerm;59477;52.374;9.916;2023-12-04T07:04:00;49.13;42.62;61.19;;
71628;Laerm;59477;52.374;9.916;2023-12-04T07:06:01;48.66;40.44;65.72;;
71628;Laerm;59477;52.374;9.916;2023-12-04T07:08:01;47.85;41.86;62.22;;
71628;Laerm;59477;52.374;9.916;2023-12-04T07:10:03;49.12;42.64;68.09;;
71628;Laerm;59477;52.374;9.916;2023-12-04T07:12:03;49.35;42.88;69.68;;
71628;Laerm;59477;52.374;9.916;2023-12-04T07:14:03;48.02;41.69;60.05;;
71628;Laerm;59477;52.374;9.916;2023-12-04T07:16:07;48.67;41.54;64.06;;
71628;Laerm;59477;52.374;9.916;2023-12-04T07:18:07;47.00;40.13;61.57;;
71628;Laerm;59477;52.374;9.916;2023-12-04T07:20:07;49.35;42.15;66.04;;
71628;Laerm;59477;52.374;9.916;2023-12-04T07:22:08;50.44;41.00;70.56;;
71628;Laerm;59477;52.374;9.916;2023-12-04T07:24:08;50.03;42.11;68.99;;
71628;Laerm;59477;52.374;9.916;2023-12-04T07:26:09;47.19;41.54;61.11;;
71628;Laerm;59477;52.374;9.916;2023-12-04T07:28:11;51.58;42.55;70.19;;
71628;Laerm;59477;52.374;9.916;2023-12-04T07:30:11;48.24;42.31;67.18;;
71628;Laerm;59477;52.374;9.916;2023-12-04T07:32:12;51.03;42.74;70.16;;
71628;Laerm;59477;52.374;9.916;2023-12-04T07:34:12;49.68;41.73;67.05;;
71628;Laerm;59477;52.374;9.916;2023-12-04T07:36:12;48.65;42.74;61.24;;
71628;Laerm;59477;52.374;9.916;2023-12-04T07:38:13;48.16;41.24;69.20;;
71628;Laerm;59477;52.374;9.916;2023-12-04T07:40:13;46.92;41.87;61.08;;
71628;Laerm;59477;52.374;9.916;2023-12-04T07:42:13;48.69;42.29;67.07;;
71628;Laerm;59477;52.374;9.916;2023-12-04T07:44:14;50.65;41.45;68.47;;
71628;Laerm;59477;52.374;9.916;2023-12-04T07:46:14;48.55;42.29;65.28;;
71628;Laerm;59477;52.374;9.916;2023-12-04T07:48:14;51.38;42.05;67.93;;
71628;Laerm;59477;52.374;9.916;2023-12-04T07:50:14;51.54;41.17;70.01;;
71628;Laerm;59477;52.374;9.916;2023-12-04T07:52:16;52.37;40.87;71.33;;
71628;Laerm;59477;52.374;9.916;2023-12-04T07:54:17;56.96;41.08;77.17;;
71628;Laerm;59477;52.374;9.916;2023-12-04T07:56:17;50.18;39.72;66.16;;
71628;Laerm;59477;52.374;9.916;2023-12-04T07:58:18;51.32;41.87;71.97;;
71628;Laerm;59477;52.374;9.916;2023-12-04T08:00:18;56.99;42.85;77.51;;
71628;Laerm;59477;52.374;9.916;2023-12-04T08:02:18;56.04;42.08;75.76;;
71628;Laerm;59477;52.374;9.916;2023-12-04T08:04:18;51.66;43.06;73.05;;
71628;Laerm;59477;52.374;9.916;2023-12-04T08:06:19;51.57;44.20;68.34;;
71628;Laerm;59477;52.374;9.916;2023-12-04T08:08:19;58.28;42.94;78.99;;
71628;Laerm;59477;52.374;9.916;2023-12-04T08:10:19;51.98;42.67;68.84;;
71628;Laerm;59477;52.374;9.916;2023-12-04T08:12:22;54.87;40.46;76.57;;
71628;Laerm;59477;52.374;9.916;2023-12-04T08:14:23;53.58;40.13;76.17;;
71628;Laerm;59477;52.374;9.916;2023-12-04T08:16:23;55.77;40.30;76.99;;
71628;Laerm;59477;52.374;9.916;2023-12-04T08:18:23;52.11;40.32;73.32;;
71628;Laerm;59477;52.374;9.916;2023-12-04T08:20:24;51.14;39.78;74.06;;
71628;Laerm;59477;52.374;9.916;2023-12-04T08:22:25;44.87;40.39;59.93;;
71628;Laerm;59477;52.374;9.916;2023-12-04T08:24:25;55.40;41.00;72.46;;
71628;Laerm;59477;52.374;9.916;2023-12-04T08:26:25;58.52;41.37;71.01;;
71628;Laerm;59477;52.374;9.916;2023-12-04T08:28:25;47.70;39.77;65.86;;
71628;Laerm;59477;52.374;9.916;2023-12-04T08:30:26;48.99;40.21;69.99;;
71628;Laerm;59477;52.374;9.916;2023-12-04T08:32:27;50.92;41.32;76.21;;
71628;Laerm;59477;52.374;9.916;2023-12-04T08:34:27;50.82;40.62;73.70;;
71628;Laerm;59477;52.374;9.916;2023-12-04T08:36:28;49.51;42.31;67.89;;
71628;Laerm;59477;52.374;9.916;2023-12-04T08:38:31;46.49;40.79;61.07;;
71628;Laerm;59477;52.374;9.916;2023-12-04T08:40:31;46.27;40.77;55.50;;
71628;Laerm;59477;52.374;9.916;2023-12-04T08:42:32;45.79;39.08;59.80;;
71628;Laerm;59477;52.374;9.916;2023-12-04T08:44:33;72.21;41.93;101.56;;
71628;Laerm;59477;52.374;9.916;2023-12-04T08:46:34;50.44;41.96;68.59;;
71628;Laerm;59477;52.374;9.916;2023-12-04T08:48:34;46.60;41.10;53.45;;
71628;Laerm;59477;52.374;9.916;2023-12-04T08:50:34;50.38;40.39;67.44;;
71628;Laerm;59477;52.374;9.916;2023-12-04T08:52:35;47.63;41.56;63.12;;
71628;Laerm;59477;52.374;9.916;2023-12-04T08:54:39;46.25;41.01;58.74;;
71628;Laerm;59477;52.374;9.916;2023-12-04T08:56:40;45.40;39.12;54.70;;
71628;Laerm;59477;52.374;9.916;2023-12-04T08:58:41;49.48;40.86;60.56;;
71628;Laerm;59477;52.374;9.916;2023-12-04T09:00:41;49.22;43.65;57.54;;
71628;Laerm;59477;52.374;9.916;2023-12-04T09:02:43;54.45;44.46;66.14;;
71628;Laerm;59477;52.374;9.916;2023-12-04T09:04:43;48.31;43.00;59.72;;
71628;Laerm;59477;52.374;9.916;2023-12-04T09:06:43;47.60;41.62;60.30;;
71628;Laerm;59477;52.374;9.916;2023-12-04T09:08:44;46.83;41.54;62.19;;
71628;Laerm;59477;52.374;9.916;2023-12-04T09:10:44;47.56;42.96;58.12;;
71628;Laerm;59477;52.374;9.916;2023-12-04T09:12:45;58.01;43.11;71.79;;
71628;Laerm;59477;52.374;9.916;2023-12-04T09:14:46;48.38;42.56;59.83;;
71628;Laerm;59477;52.374;9.916;2023-12-04T09:16:46;65.46;42.79;86.61;;
71628;Laerm;59477;52.374;9.916;2023-12-04T09:18:46;57.26;44.96;72.09;;
71628;Laerm;59477;52.374;9.916;2023-12-04T09:20:47;52.29;42.47;70.36;;
71628;Laerm;59477;52.374;9.916;2023-12-04T09:22:47;48.31;41.48;57.73;;
71628;Laerm;59477;52.374;9.916;2023-12-04T09:24:47;49.77;41.57;57.18;;
71628;Laerm;59477;52.374;9.916;2023-12-04T09:26:47;48.01;41.93;55.76;;
71628;Laerm;59477;52.374;9.916;2023-12-04T09:28:48;49.37;44.17;61.50;;
71628;Laerm;59477;52.374;9.916;2023-12-04T09:30:48;51.44;43.23;61.76;;
71628;Laerm;59477;52.374;9.916;2023-12-04T09:32:48;50.23;43.34;59.61;;
71628;Laerm;59477;52.374;9.916;2023-12-04T09:34:49;50.16;43.10;60.85;;
71628;Laerm;59477;52.374;9.916;2023-12-04T09:36:49;50.51;42.53;62.01;;
71628;Laerm;59477;52.374;9.916;2023-12-04T09:38:49;47.40;41.76;61.68;;
71628;Laerm;59477;52.374;9.916;2023-12-04T09:40:49;47.22;42.23;59.57;;
71628;Laerm;59477;52.374;9.916;2023-12-04T09:42:52;48.30;41.91;64.14;;
71628;Laerm;59477;52.374;9.916;2023-12-04T09:44:53;47.65;43.14;56.57;;
71628;Laerm;59477;52.374;9.916;2023-12-04T09:46:54;47.85;41.27;65.16;;
71628;Laerm;59477;52.374;9.916;2023-12-04T09:48:55;48.59;42.15;59.38;;
71628;Laerm;59477;52.374;9.916;2023-12-04T09:50:57;48.83;41.80;59.91;;
71628;Laerm;59477;52.374;9.916;2023-12-04T09:52:57;49.20;41.14;78.42;;
71628;Laerm;59477;52.374;9.916;2023-12-04T09:54:59;47.53;41.94;56.09;;
71628;Laerm;59477;52.374;9.916;2023-12-04T09:57:00;49.45;43.67;60.81;;
71628;Laerm;59477;52.374;9.916;2023-12-04T09:59:01;47.70;42.81;66.44;;
71628;Laerm;59477;52.374;9.916;2023-12-04T10:01:01;46.73;41.39;59.37;;
71628;Laerm;59477;52.374;9.916;2023-12-04T10:03:02;47.91;41.13;54.75;;
71628;Laerm;59477;52.374;9.916;2023-12-04T10:05:02;48.41;41.61;57.07;;
71628;Laerm;59477;52.374;9.916;2023-12-04T10:07:05;47.92;42.47;58.92;;
71628;Laerm;59477;52.374;9.916;2023-12-04T10:09:06;46.73;41.50;55.06;;
71628;Laerm;59477;52.374;9.916;2023-12-04T10:11:14;46.00;40.26;56.24;;
71628;Laerm;59477;52.374;9.916;2023-12-04T10:13:14;46.22;41.06;54.67;;
71628;Laerm;59477;52.374;9.916;2023-12-04T10:15:15;46.78;40.87;59.60;;
71628;Laerm;59477;52.374;9.916;2023-12-04T10:17:16;46.67;41.39;57.83;;
71628;Laerm;59477;52.374;9.916;2023-12-04T10:21:18;50.08;39.61;78.50;;
71628;Laerm;59477;52.374;9.916;2023-12-04T10:23:18;47.24;40.87;57.03;;
71628;Laerm;59477;52.374;9.916;2023-12-04T10:25:18;45.35;40.68;54.55;;
71628;Laerm;59477;52.374;9.916;2023-12-04T10:27:19;46.84;40.60;62.26;;
71628;Laerm;59477;52.374;9.916;2023-12-04T10:29:26;44.90;39.41;54.78;;
71628;Laerm;59477;52.374;9.916;2023-12-04T10:31:33;53.55;38.96;68.84;;
71628;Laerm;59477;52.374;9.916;2023-12-04T10:33:34;46.07;41.14;61.20;;
71628;Laerm;59477;52.374;9.916;2023-12-04T10:35:36;46.79;41.64;61.04;;
71628;Laerm;59477;52.374;9.916;2023-12-04T10:37:36;48.99;41.28;61.26;;
71628;Laerm;59477;52.374;9.916;2023-12-04T10:39:47;46.53;39.34;59.27;;
71628;Laerm;59477;52.374;9.916;2023-12-04T10:41:54;46.66;40.76;57.53;;
71628;Laerm;59477;52.374;9.916;2023-12-04T10:43:58;46.93;40.45;58.12;;
71628;Laerm;59477;52.374;9.916;2023-12-04T10:46:01;47.19;40.26;60.74;;
71628;Laerm;59477;52.374;9.916;2023-12-04T10:48:04;48.23;42.49;59.57;;
71628;Laerm;59477;52.374;9.916;2023-12-04T10:50:05;48.63;42.17;58.83;;
71628;Laerm;59477;52.374;9.916;2023-12-04T10:52:07;46.66;41.04;58.65;;
71628;Laerm;59477;52.374;9.916;2023-12-04T10:54:09;44.21;37.72;54.83;;
71628;Laerm;59477;52.374;9.916;2023-12-04T10:56:19;46.56;40.81;55.09;;
71628;Laerm;59477;52.374;9.916;2023-12-04T10:58:19;46.29;38.43;55.75;;
71628;Laerm;59477;52.374;9.916;2023-12-04T11:00:20;66.33;41.14;88.78;;
71628;Laerm;59477;52.374;9.916;2023-12-04T11:02:21;53.36;39.53;79.45;;
71628;Laerm;59477;52.374;9.916;2023-12-04T11:04:26;46.70;40.74;63.75;;
71628;Laerm;59477;52.374;9.916;2023-12-04T11:06:28;46.74;39.57;58.86;;
71628;Laerm;59477;52.374;9.916;2023-12-04T11:08:32;47.11;38.79;62.27;;
71628;Laerm;59477;52.374;9.916;2023-12-04T11:10:33;48.27;41.92;61.85;;
71628;Laerm;59477;52.374;9.916;2023-12-04T11:12:34;46.09;40.48;56.84;;
71628;Laerm;59477;52.374;9.916;2023-12-04T11:14:37;45.30;38.95;61.20;;
71628;Laerm;59477;52.374;9.916;2023-12-04T11:18:40;48.75;40.92;68.69;;